createdAt,value
2018-03-07T00:00:32.252Z,27.77
2018-03-07T00:03:00.477Z,36.00
2018-03-07T00:05:28.765Z,28.60
2018-03-07T00:07:56.873Z,24.33
2018-03-07T00:10:24.993Z,28.30
2018-03-07T00:12:53.357Z,26.80
2018-03-07T00:15:21.474Z,29.70
2018-03-07T00:17:49.580Z,27.97
2018-03-07T00:20:19.412Z,26.10
2018-03-07T00:22:48.440Z,29.00
2018-03-07T00:25:17.959Z,30.70
2018-03-07T00:27:48.279Z,30.47
2018-03-07T00:30:17.265Z,30.60
2018-03-07T00:32:46.490Z,28.70
2018-03-07T00:35:14.743Z,28.73
2018-03-07T00:37:42.920Z,30.07
2018-03-07T00:40:12.142Z,28.57
2018-03-07T00:42:43.999Z,30.40
2018-03-07T00:45:13.183Z,32.80
2018-03-07T00:47:41.302Z,29.47
2018-03-07T00:50:09.922Z,29.87
2018-03-07T00:52:38.085Z,28.30
2018-03-07T00:55:06.815Z,29.30
2018-03-07T00:57:34.964Z,29.47
2018-03-07T01:00:03.101Z,32.10
2018-03-07T01:02:32.631Z,30.03
2018-03-07T01:05:09.237Z,30.47
2018-03-07T01:07:40.087Z,32.80
2018-03-07T01:10:09.006Z,29.53
2018-03-07T01:12:40.502Z,31.10
2018-03-07T01:15:10.289Z,30.47
2018-03-07T01:17:39.423Z,32.93
2018-03-07T01:20:09.772Z,35.50
2018-03-07T01:22:39.084Z,33.17
2018-03-07T01:25:09.785Z,32.93
2018-03-07T01:27:38.982Z,33.90
2018-03-07T01:30:09.357Z,34.43
2018-03-07T01:32:38.323Z,40.23
2018-03-07T01:35:09.715Z,32.33
2018-03-07T01:37:38.631Z,35.30
2018-03-07T01:40:06.767Z,37.13
2018-03-07T01:42:40.739Z,33.97
2018-03-07T01:45:10.718Z,34.00
2018-03-07T01:47:40.290Z,24.80
2018-03-07T01:50:11.651Z,32.07
2018-03-07T01:53:11.214Z,28.90
2018-03-07T02:02:29.006Z,34.70
2018-03-07T02:07:40.867Z,34.83
2018-03-07T02:10:15.614Z,36.70
2018-03-07T02:21:58.000Z,34.70
2018-03-07T02:24:27.930Z,32.87
2018-03-07T02:26:58.512Z,34.33
2018-03-07T02:29:27.500Z,31.67
2018-03-07T02:31:59.323Z,33.53
2018-03-07T02:34:28.718Z,29.97
2018-03-07T02:36:56.869Z,38.30
2018-03-07T02:39:25.408Z,35.33
2018-03-07T02:41:55.051Z,32.77
2018-03-07T02:44:23.193Z,35.97
2018-03-07T02:46:51.319Z,36.80
2018-03-07T02:49:19.434Z,31.63
2018-03-07T02:51:47.570Z,35.27
2018-03-07T02:54:16.481Z,38.93
2018-03-07T02:56:44.642Z,36.07
2018-03-07T02:59:15.619Z,37.90
2018-03-07T03:01:47.692Z,36.57
2018-03-07T03:04:17.603Z,39.93
2018-03-07T03:06:47.743Z,34.70
2018-03-07T03:09:16.741Z,36.07
2018-03-07T03:11:45.256Z,33.70
2018-03-07T03:14:14.916Z,39.33
2018-03-07T03:16:43.260Z,36.77
2018-03-07T03:19:11.432Z,35.00
2018-03-07T03:21:39.584Z,37.10
2018-03-07T03:24:08.465Z,39.60
2018-03-07T03:26:36.653Z,40.33
2018-03-07T03:29:04.768Z,35.53
2018-03-07T03:31:32.885Z,39.30
2018-03-07T03:34:05.482Z,34.30
2018-03-07T03:36:36.981Z,40.20
2018-03-07T03:39:05.246Z,31.57
2018-03-07T03:41:33.580Z,35.63
2018-03-07T03:44:03.637Z,34.97
2018-03-07T03:46:33.473Z,41.30
2018-03-07T03:56:02.136Z,32.60
2018-03-07T03:58:30.324Z,32.43
2018-03-07T04:00:59.244Z,34.30
2018-03-07T04:03:27.433Z,37.37
2018-03-07T04:05:56.297Z,40.20
2018-03-07T04:11:13.864Z,36.20
2018-03-07T04:13:42.063Z,36.53
2018-03-07T04:16:11.928Z,37.27
2018-03-07T04:18:40.034Z,37.03
2018-03-07T04:21:08.119Z,36.37
2018-03-07T04:23:36.215Z,36.37
2018-03-07T04:26:04.356Z,34.47
2018-03-07T04:28:33.402Z,38.67
2018-03-07T04:31:01.504Z,37.77
2018-03-07T04:33:31.450Z,35.40
2018-03-07T04:35:59.540Z,34.90
2018-03-07T04:38:27.652Z,32.63
2018-03-07T04:40:55.747Z,37.50
2018-03-07T04:43:23.828Z,32.73
2018-03-07T04:45:51.925Z,39.57
2018-03-07T04:48:20.010Z,41.13
2018-03-07T04:50:48.180Z,36.67
2018-03-07T04:53:16.272Z,35.57
2018-03-07T04:55:45.154Z,35.70
2018-03-07T04:58:14.001Z,36.23
2018-03-07T05:00:42.090Z,37.03
2018-03-07T05:03:10.183Z,39.47
2018-03-07T05:05:38.281Z,35.50
2018-03-07T05:08:06.404Z,40.03
2018-03-07T05:10:34.548Z,38.13
2018-03-07T05:13:02.611Z,35.70
2018-03-07T05:15:30.833Z,35.57
2018-03-07T05:17:58.907Z,34.67
2018-03-07T05:20:27.011Z,33.80
2018-03-07T05:22:55.123Z,34.70
2018-03-07T05:25:23.217Z,36.93
2018-03-07T05:27:51.293Z,35.37
2018-03-07T05:30:19.388Z,40.17
2018-03-07T05:32:48.229Z,38.53
2018-03-07T05:35:16.346Z,36.83
2018-03-07T05:37:45.199Z,34.27
2018-03-07T05:40:13.323Z,35.67
2018-03-07T05:42:42.191Z,39.00
2018-03-07T05:45:10.308Z,36.37
2018-03-07T05:47:38.400Z,35.40
2018-03-07T05:50:06.469Z,40.37
2018-03-07T05:52:34.571Z,45.33
2018-03-07T05:55:02.660Z,36.13
2018-03-07T05:57:31.652Z,37.87
2018-03-07T06:00:00.536Z,38.67
2018-03-07T06:02:29.423Z,39.23
2018-03-07T06:04:59.671Z,32.40
2018-03-07T06:07:27.768Z,35.40
2018-03-07T06:09:55.859Z,33.90
2018-03-07T06:12:23.968Z,35.83
2018-03-07T06:14:52.061Z,36.67
2018-03-07T06:17:20.174Z,34.93
2018-03-07T06:19:48.276Z,34.43
2018-03-07T06:22:16.361Z,36.53
2018-03-07T06:24:44.482Z,35.33
2018-03-07T06:27:12.580Z,38.23
2018-03-07T06:29:40.685Z,37.80
2018-03-07T06:32:09.560Z,38.30
2018-03-07T06:34:37.672Z,39.63
2018-03-07T06:37:05.791Z,45.33
2018-03-07T06:39:33.908Z,43.20
2018-03-07T06:42:02.786Z,52.90
2018-03-07T06:44:31.644Z,55.53
2018-03-07T06:46:59.743Z,44.53
2018-03-07T06:49:27.845Z,39.47
2018-03-07T06:51:55.948Z,44.57
2018-03-07T06:54:24.046Z,47.00
2018-03-07T06:56:52.146Z,53.70
2018-03-07T06:59:21.320Z,50.43
2018-03-07T07:01:49.415Z,48.63
2018-03-07T07:04:18.255Z,68.40
2018-03-07T07:06:46.357Z,71.47
2018-03-07T07:09:14.454Z,63.67
2018-03-07T07:11:43.292Z,56.83
2018-03-07T07:14:11.395Z,55.67
2018-03-07T07:16:39.470Z,53.03
2018-03-07T07:19:07.554Z,54.53
2018-03-07T07:21:36.390Z,52.03
2018-03-07T07:24:04.492Z,59.13
2018-03-07T07:26:32.583Z,53.33
2018-03-07T07:29:01.410Z,49.67
2018-03-07T07:31:29.551Z,55.60
2018-03-07T07:33:57.616Z,61.90
2018-03-07T07:36:26.480Z,63.37
2018-03-07T07:38:54.559Z,59.70
2018-03-07T07:41:23.671Z,62.20
2018-03-07T07:43:52.508Z,63.17
2018-03-07T07:46:20.668Z,64.97
2018-03-07T07:48:48.745Z,64.90
2018-03-07T07:51:16.920Z,67.80
2018-03-07T07:53:45.025Z,59.37
2018-03-07T07:56:13.123Z,55.77
2018-03-07T07:58:41.981Z,53.97
2018-03-07T08:01:10.068Z,49.87
2018-03-07T08:03:38.166Z,50.70
2018-03-07T08:06:06.251Z,50.93
2018-03-07T08:08:35.426Z,50.70
2018-03-07T08:11:03.523Z,48.57
2018-03-07T08:13:32.379Z,50.33
2018-03-07T08:16:00.456Z,46.13
2018-03-07T08:18:28.548Z,40.73
2018-03-07T08:20:57.380Z,48.07
2018-03-07T08:23:25.497Z,41.43
2018-03-07T08:25:54.348Z,45.90
2018-03-07T08:28:22.415Z,42.63
2018-03-07T08:30:50.507Z,44.50
2018-03-07T08:33:18.576Z,45.67
2018-03-07T08:35:46.726Z,48.77
2018-03-07T08:38:15.523Z,42.70
2018-03-07T08:40:43.613Z,46.47
2018-03-07T08:43:11.690Z,44.63
2018-03-07T08:45:39.784Z,52.63
2018-03-07T08:48:08.312Z,42.10
2018-03-07T08:50:36.408Z,50.37
2018-03-07T08:53:04.506Z,44.80
2018-03-07T08:55:32.593Z,43.03
2018-03-07T08:58:01.455Z,44.13
2018-03-07T09:00:29.818Z,41.00
2018-03-07T09:02:58.879Z,40.73
2018-03-07T09:05:26.971Z,39.07
2018-03-07T09:07:55.353Z,46.50
2018-03-07T09:10:23.423Z,44.27
2018-03-07T09:12:51.517Z,38.70
2018-03-07T09:15:19.606Z,40.23
2018-03-07T09:17:47.699Z,37.50
2018-03-07T09:20:16.546Z,35.80
2018-03-07T09:22:44.622Z,33.63
2018-03-07T09:25:12.720Z,34.63
2018-03-07T09:27:40.832Z,32.13
2018-03-07T09:30:08.932Z,33.13
2018-03-07T09:32:37.006Z,33.97
2018-03-07T09:35:05.094Z,34.53
2018-03-07T09:37:33.196Z,31.40
2018-03-07T09:40:02.065Z,31.87
2018-03-07T09:42:30.152Z,32.70
2018-03-07T09:44:58.995Z,35.40
2018-03-07T09:47:29.192Z,39.03
2018-03-07T09:49:58.243Z,33.90
2018-03-07T09:52:26.317Z,31.93
2018-03-07T09:54:54.407Z,39.93
2018-03-07T09:57:23.259Z,32.83
2018-03-07T09:59:51.368Z,31.63
2018-03-07T10:02:20.222Z,36.87
2018-03-07T10:04:48.317Z,40.33
2018-03-07T10:07:16.390Z,45.80
2018-03-07T10:09:44.464Z,39.60
2018-03-07T10:12:13.332Z,40.37
2018-03-07T10:14:41.409Z,36.43
2018-03-07T10:17:09.517Z,41.93
2018-03-07T10:19:37.593Z,38.43
2018-03-07T10:22:05.688Z,38.97
2018-03-07T10:24:33.766Z,40.00
2018-03-07T10:27:01.862Z,37.23
2018-03-07T10:29:29.977Z,33.73
2018-03-07T10:31:58.824Z,37.10
2018-03-07T10:34:26.927Z,38.80
2018-03-07T10:36:55.763Z,35.50
2018-03-07T10:39:23.864Z,38.63
2018-03-07T10:41:52.436Z,37.40
2018-03-07T10:44:20.534Z,37.27
2018-03-07T10:46:50.788Z,37.47
2018-03-07T10:49:19.610Z,40.07
2018-03-07T10:51:50.140Z,42.70
2018-03-07T10:54:18.380Z,37.60
2018-03-07T10:56:47.084Z,36.07
2018-03-07T10:59:15.906Z,33.67
2018-03-07T11:01:44.437Z,36.40
2018-03-07T11:04:12.559Z,37.03
2018-03-07T11:06:41.511Z,30.40
2018-03-07T11:09:09.615Z,30.50
2018-03-07T11:11:37.980Z,33.27
2018-03-07T11:14:06.835Z,28.93
2018-03-07T11:16:36.633Z,32.30
2018-03-07T11:19:05.984Z,32.50
2018-03-07T11:21:34.051Z,38.00
2018-03-07T11:24:02.143Z,33.87
2018-03-07T11:26:30.251Z,31.97
2018-03-07T11:28:58.384Z,38.10
2018-03-07T11:31:26.489Z,38.27
2018-03-07T11:33:54.605Z,32.10
2018-03-07T11:36:22.722Z,38.57
2018-03-07T11:38:50.799Z,41.13
2018-03-07T11:41:18.927Z,34.50
2018-03-07T11:43:47.007Z,35.70
2018-03-07T11:46:15.854Z,33.83
2018-03-07T11:48:44.739Z,34.90
2018-03-07T11:51:13.598Z,35.93
2018-03-07T11:53:41.689Z,38.77
2018-03-07T11:56:09.843Z,41.57
2018-03-07T11:58:38.681Z,35.90
2018-03-07T12:01:07.520Z,41.27
2018-03-07T12:03:35.604Z,34.77
2018-03-07T12:06:03.681Z,36.37
2018-03-07T12:08:31.767Z,32.77
2018-03-07T12:11:00.648Z,39.30
2018-03-07T12:13:28.726Z,37.10
2018-03-07T12:15:56.815Z,36.07
2018-03-07T12:18:28.824Z,37.10
2018-03-07T12:20:56.911Z,41.50
2018-03-07T12:23:25.004Z,38.43
2018-03-07T12:25:53.108Z,42.20
2018-03-07T12:28:21.212Z,34.23
2018-03-07T12:30:49.284Z,31.07
2018-03-07T12:33:17.385Z,32.87
2018-03-07T12:35:45.481Z,35.97
2018-03-07T12:38:14.351Z,38.63
2018-03-07T12:40:42.430Z,35.37
2018-03-07T12:43:10.520Z,35.47
2018-03-07T12:45:38.771Z,39.77
2018-03-07T12:48:06.853Z,45.33
2018-03-07T12:50:35.436Z,40.30
2018-03-07T12:53:04.805Z,39.03
2018-03-07T12:55:32.907Z,37.90
2018-03-07T12:58:01.075Z,34.10
2018-03-07T13:00:29.321Z,48.03
2018-03-07T13:03:01.331Z,35.30
2018-03-07T13:05:29.705Z,34.00
2018-03-07T13:07:57.775Z,39.57
2018-03-07T13:10:26.678Z,38.53
2018-03-07T13:12:54.775Z,33.50
2018-03-07T13:15:23.458Z,36.87
2018-03-07T13:17:51.976Z,35.00
2018-03-07T13:20:21.339Z,35.60
2018-03-07T13:22:50.716Z,38.63
2018-03-07T13:25:19.572Z,32.73
2018-03-07T13:27:49.272Z,31.50
2018-03-07T13:30:17.389Z,32.43
2018-03-07T13:32:46.420Z,29.97
2018-03-07T13:35:14.520Z,28.23
2018-03-07T13:37:42.612Z,33.50
2018-03-07T13:40:10.759Z,23.40
2018-03-07T13:42:38.842Z,23.80
2018-03-07T13:45:07.111Z,25.70
2018-03-07T13:47:35.208Z,25.90
2018-03-07T13:50:03.297Z,27.17
2018-03-07T13:52:32.132Z,27.47
2018-03-07T13:55:00.900Z,24.13
2018-03-07T13:57:29.685Z,24.60
2018-03-07T13:59:58.533Z,24.00
2018-03-07T14:02:26.620Z,19.57
2018-03-07T14:04:57.225Z,22.70
2018-03-07T14:07:25.463Z,22.10
2018-03-07T14:09:53.552Z,21.83
2018-03-07T14:12:22.211Z,17.80
2018-03-07T14:14:50.292Z,14.63
2018-03-07T14:17:18.367Z,12.83
2018-03-07T14:19:47.161Z,13.80
2018-03-07T14:22:15.234Z,10.27
2018-03-07T14:24:48.118Z,9.03
2018-03-07T14:27:16.173Z,6.43
2018-03-07T14:29:44.828Z,6.67
2018-03-07T14:32:13.723Z,8.03
2018-03-07T14:34:43.039Z,6.33
2018-03-07T14:37:11.712Z,5.30
2018-03-07T14:39:39.787Z,6.47
2018-03-07T14:42:08.618Z,6.97
2018-03-07T14:44:36.708Z,5.77
2018-03-07T14:47:04.792Z,10.13
2018-03-07T14:49:32.929Z,13.30
2018-03-07T14:52:01.532Z,12.83
2018-03-07T14:54:30.688Z,14.23
2018-03-07T14:56:58.824Z,15.50
2018-03-07T14:59:27.305Z,12.53
2018-03-07T15:01:55.391Z,14.33
2018-03-07T15:04:24.496Z,14.30
2018-03-07T15:06:54.347Z,10.93
2018-03-07T15:09:24.123Z,11.80
2018-03-07T15:11:53.545Z,11.63
2018-03-07T15:14:22.036Z,11.40
2018-03-07T15:16:51.826Z,16.80
2018-03-07T15:19:20.282Z,12.30
2018-03-07T15:21:50.004Z,11.40
2018-03-07T15:24:18.924Z,8.57
2018-03-07T15:26:46.994Z,9.90
2018-03-07T15:29:16.607Z,8.10
2018-03-07T15:31:44.685Z,8.47
2018-03-07T15:34:12.759Z,7.90
2018-03-07T15:36:41.395Z,9.73
2018-03-07T15:39:11.907Z,8.33
2018-03-07T15:41:40.007Z,10.73
2018-03-07T15:44:08.085Z,8.87
2018-03-07T15:46:36.191Z,10.07
2018-03-07T15:49:04.357Z,12.67
2018-03-07T15:51:33.051Z,10.53
2018-03-07T15:54:01.261Z,9.20
2018-03-07T15:56:30.730Z,16.57
2018-03-07T15:58:59.577Z,11.07
2018-03-07T16:01:27.907Z,10.27
2018-03-07T16:03:57.687Z,10.20
2018-03-07T16:06:25.761Z,9.53
2018-03-07T16:08:54.242Z,10.20
2018-03-07T16:11:23.419Z,13.73
2018-03-07T16:13:51.483Z,9.67
2018-03-07T16:16:19.575Z,11.27
2018-03-07T16:18:48.477Z,14.23
2018-03-07T16:21:16.775Z,10.30
2018-03-07T16:23:45.734Z,14.30
2018-03-07T16:26:14.590Z,10.40
2018-03-07T16:28:44.740Z,16.70
2018-03-07T16:31:12.849Z,13.97
2018-03-07T16:33:40.927Z,13.00
2018-03-07T16:36:09.440Z,14.40
2018-03-07T16:38:37.520Z,10.63
2018-03-07T16:41:06.091Z,10.60
2018-03-07T16:43:34.183Z,12.13
2018-03-07T16:46:02.287Z,10.33
2018-03-07T16:48:30.409Z,12.03
2018-03-07T16:50:58.510Z,9.43
2018-03-07T16:53:27.295Z,8.13
2018-03-07T16:55:58.276Z,10.93
2018-03-07T16:58:26.363Z,22.53
2018-03-07T17:00:55.454Z,8.13
2018-03-07T17:03:23.993Z,8.40
2018-03-07T17:05:52.612Z,7.77
2018-03-07T17:08:20.689Z,4.77
2018-03-07T17:10:48.768Z,4.90
2018-03-07T17:13:16.909Z,8.47
2018-03-07T17:15:44.956Z,5.10
2018-03-07T17:18:13.029Z,3.80
2018-03-07T17:20:41.116Z,3.60
2018-03-07T17:23:09.968Z,5.03
2018-03-07T17:25:38.066Z,5.43
2018-03-07T17:28:06.940Z,3.90
2018-03-07T17:30:35.016Z,6.13
2018-03-07T17:33:03.099Z,3.43
2018-03-07T17:35:31.164Z,4.40
2018-03-07T17:38:00.040Z,4.33
2018-03-07T17:40:28.114Z,5.40
2018-03-07T17:42:56.216Z,4.73
2018-03-07T17:45:25.051Z,5.20
2018-03-07T17:47:53.121Z,4.20
2018-03-07T17:50:21.229Z,4.43
2018-03-07T17:52:50.481Z,3.87
2018-03-07T17:55:19.172Z,3.60
2018-03-07T17:57:47.260Z,4.80
2018-03-07T18:00:15.321Z,4.57
2018-03-07T18:02:43.404Z,4.03
2018-03-07T18:05:11.471Z,2.93
2018-03-07T18:07:39.535Z,5.00
2018-03-07T18:10:07.621Z,4.87
2018-03-07T18:12:35.705Z,2.87
2018-03-07T18:15:03.810Z,4.90
2018-03-07T18:17:31.890Z,4.10
2018-03-07T18:20:00.758Z,2.80
2018-03-07T18:22:28.833Z,3.23
2018-03-07T18:24:56.913Z,2.60
2018-03-07T18:27:26.106Z,2.87
2018-03-07T18:29:54.975Z,3.67
2018-03-07T18:32:23.071Z,4.83
2018-03-07T18:34:51.926Z,4.37
2018-03-07T18:37:20.138Z,2.80
2018-03-07T18:39:48.299Z,3.80
2018-03-07T18:42:16.389Z,3.80
2018-03-07T18:44:45.228Z,4.67
2018-03-07T18:47:13.318Z,8.50
2018-03-07T18:49:41.398Z,6.23
2018-03-07T18:52:09.553Z,5.83
2018-03-07T18:54:37.756Z,5.03
2018-03-07T18:57:05.835Z,9.30
2018-03-07T18:59:33.916Z,6.23
2018-03-07T19:02:02.777Z,8.80
2018-03-07T19:04:30.860Z,6.53
2018-03-07T19:06:59.791Z,7.87
2018-03-07T19:09:33.723Z,4.57
2018-03-07T19:12:01.828Z,8.73
2018-03-07T19:14:29.913Z,8.53
2018-03-07T19:16:58.769Z,6.30
2018-03-07T19:19:26.917Z,5.80
2018-03-07T19:21:54.995Z,6.57
2018-03-07T19:24:23.119Z,7.53
2018-03-07T19:26:51.708Z,6.77
2018-03-07T19:29:19.812Z,12.00
2018-03-07T19:31:47.887Z,7.37
2018-03-07T19:34:15.977Z,5.87
2018-03-07T19:36:44.051Z,11.77
2018-03-07T19:39:12.112Z,9.03
2018-03-07T19:41:40.218Z,8.80
2018-03-07T19:44:08.307Z,12.33
2018-03-07T19:46:36.418Z,44.07
2018-03-07T19:49:04.929Z,11.10
2018-03-07T19:51:33.736Z,9.03
2018-03-07T19:54:01.820Z,8.60
2018-03-07T19:56:29.927Z,10.73
2018-03-07T19:58:58.003Z,8.87
2018-03-07T20:01:26.080Z,9.40
2018-03-07T20:03:54.164Z,8.63
2018-03-07T20:06:22.252Z,11.23
2018-03-07T20:08:50.332Z,10.23
2018-03-07T20:11:18.419Z,10.63
2018-03-07T20:13:46.496Z,11.60
2018-03-07T20:16:14.676Z,9.73
2018-03-07T20:18:42.814Z,14.43
2018-03-07T20:21:10.907Z,15.43
2018-03-07T20:23:39.003Z,16.83
2018-03-07T20:26:07.097Z,15.00
2018-03-07T20:28:36.191Z,16.50
2018-03-07T20:31:04.264Z,17.37
2018-03-07T20:33:32.389Z,23.53
2018-03-07T20:36:00.490Z,23.40
2018-03-07T20:38:28.590Z,22.67
2018-03-07T20:40:56.874Z,24.90
2018-03-07T20:43:24.950Z,26.90
2018-03-07T20:45:53.039Z,25.70
2018-03-07T20:48:21.131Z,28.60
2018-03-07T20:50:49.245Z,35.77
2018-03-07T20:53:17.633Z,30.10
2018-03-07T20:55:45.726Z,43.07
2018-03-07T20:58:13.820Z,32.60
2018-03-07T21:00:41.894Z,38.43
2018-03-07T21:03:09.992Z,41.93
2018-03-07T21:05:38.832Z,39.20
2018-03-07T21:08:08.907Z,42.27
2018-03-07T21:10:56.613Z,40.10
2018-03-07T21:13:24.724Z,36.10
2018-03-07T21:15:53.643Z,43.97
2018-03-07T21:18:22.099Z,35.40
2018-03-07T21:20:50.556Z,33.27
2018-03-07T21:23:18.997Z,28.10
2018-03-07T21:25:47.654Z,31.63
2018-03-07T21:28:15.749Z,24.90
2018-03-07T21:30:43.856Z,19.60
2018-03-07T21:33:12.758Z,18.43
2018-03-07T21:35:41.784Z,18.70
2018-03-07T21:38:09.886Z,20.20
2018-03-07T21:40:37.997Z,14.93
2018-03-07T21:43:06.888Z,15.27
2018-03-07T21:45:35.810Z,11.43
2018-03-07T21:48:03.947Z,15.30
2018-03-07T21:50:32.098Z,15.63
2018-03-07T21:53:00.202Z,14.23
2018-03-07T21:55:29.068Z,13.77
2018-03-07T21:57:57.217Z,15.17
2018-03-07T22:00:26.309Z,17.17
2018-03-07T22:02:55.767Z,13.43
2018-03-07T22:05:25.506Z,15.23
2018-03-07T22:07:53.627Z,18.33
2018-03-07T22:10:21.808Z,20.17
2018-03-07T22:12:49.899Z,20.10
2018-03-07T22:15:18.799Z,22.40
2018-03-07T22:17:47.731Z,21.13
2018-03-07T22:20:15.928Z,22.90
2018-03-07T22:22:44.104Z,24.63
2018-03-07T22:25:12.317Z,26.63
2018-03-07T22:27:41.210Z,25.77
2018-03-07T22:30:09.347Z,29.83
2018-03-07T22:32:37.455Z,29.00
2018-03-07T22:35:06.312Z,34.77
2018-03-07T22:37:34.431Z,34.40
2018-03-07T22:40:02.536Z,34.40
2018-03-07T22:42:30.660Z,36.90
2018-03-07T22:44:58.806Z,36.40
2018-03-07T22:47:26.925Z,45.07
2018-03-07T22:49:55.043Z,37.83
2018-03-07T22:52:23.139Z,43.37
2018-03-07T22:54:52.011Z,42.30
2018-03-07T22:57:20.111Z,41.87
2018-03-07T22:59:49.006Z,48.07
2018-03-07T23:02:17.849Z,46.90
2018-03-07T23:04:45.949Z,45.53
2018-03-07T23:07:14.075Z,49.60
2018-03-07T23:09:43.097Z,48.47
2018-03-07T23:12:11.193Z,51.17
2018-03-07T23:14:40.118Z,48.13
2018-03-07T23:17:08.243Z,47.97
2018-03-07T23:19:36.400Z,53.10
2018-03-07T23:22:06.580Z,47.90
2018-03-07T23:24:35.610Z,60.50
2018-03-07T23:27:04.756Z,67.03
2018-03-07T23:29:33.624Z,57.00
2018-03-07T23:32:03.272Z,57.73
2018-03-07T23:34:31.422Z,56.43
2018-03-07T23:37:01.088Z,66.30
2018-03-07T23:39:29.213Z,56.57
2018-03-07T23:41:57.343Z,59.60
2018-03-07T23:44:25.458Z,58.57
2018-03-07T23:46:53.551Z,60.77
2018-03-07T23:49:21.641Z,64.70
2018-03-07T23:51:49.717Z,63.37
2018-03-07T23:54:17.879Z,62.80
2018-03-07T23:56:45.986Z,67.50
2018-03-07T23:59:14.105Z,67.30
